createdAt,value
2018-03-20T00:02:15.546Z,13.30
2018-03-20T00:04:43.095Z,13.20
2018-03-20T00:07:10.695Z,13.50
2018-03-20T00:09:38.242Z,12.17
2018-03-20T00:12:05.805Z,12.73
2018-03-20T00:14:33.352Z,12.40
2018-03-20T00:17:00.908Z,12.10
2018-03-20T00:19:28.465Z,11.60
2018-03-20T00:21:56.033Z,11.90
2018-03-20T00:24:23.568Z,11.83
2018-03-20T00:26:51.091Z,10.73
2018-03-20T00:29:18.722Z,11.25
2018-03-20T00:31:46.256Z,11.20
2018-03-20T00:34:13.846Z,12.70
2018-03-20T00:36:41.399Z,12.17
2018-03-20T00:39:08.951Z,12.63
2018-03-20T00:41:36.624Z,12.83
2018-03-20T00:44:04.184Z,11.77
2018-03-20T00:46:31.716Z,12.52
2018-03-20T00:48:59.283Z,12.93
2018-03-20T00:51:26.807Z,13.00
2018-03-20T00:53:54.417Z,12.73
2018-03-20T00:56:21.984Z,13.23
2018-03-20T00:58:49.536Z,12.67
2018-03-20T01:01:17.119Z,12.60
2018-03-20T01:03:44.661Z,13.50
2018-03-20T01:06:12.214Z,12.20
2018-03-20T01:08:39.746Z,12.60
2018-03-20T01:11:07.312Z,13.03
2018-03-20T01:13:34.852Z,13.05
2018-03-20T01:16:02.406Z,13.43
2018-03-20T01:18:29.948Z,13.97
2018-03-20T01:20:57.487Z,13.10
2018-03-20T01:23:25.935Z,12.93
2018-03-20T01:25:53.469Z,12.90
2018-03-20T01:28:21.031Z,13.20
2018-03-20T01:30:48.563Z,13.47
2018-03-20T01:33:16.124Z,13.93
2018-03-20T01:35:43.649Z,13.70
2018-03-20T01:38:11.281Z,14.38
2018-03-20T01:40:38.806Z,14.17
2018-03-20T01:43:06.348Z,15.00
2018-03-20T01:45:33.904Z,15.00
2018-03-20T01:48:01.444Z,14.33
2018-03-20T01:50:29.005Z,14.10
2018-03-20T01:53:08.265Z,13.67
2018-03-20T01:55:35.845Z,13.57
2018-03-20T01:58:03.422Z,14.97
2018-03-20T02:00:31.049Z,14.30
2018-03-20T02:02:58.580Z,14.47
2018-03-20T02:05:26.651Z,13.77
2018-03-20T02:07:54.196Z,14.43
2018-03-20T02:10:21.737Z,13.73
2018-03-20T02:12:49.311Z,14.40
2018-03-20T02:15:16.864Z,15.60
2018-03-20T02:17:44.432Z,15.32
2018-03-20T02:20:11.968Z,13.97
2018-03-20T02:22:39.533Z,13.93
2018-03-20T02:25:07.055Z,15.20
2018-03-20T02:27:34.638Z,14.17
2018-03-20T02:30:02.184Z,13.13
2018-03-20T02:32:29.779Z,14.03
2018-03-20T02:34:57.310Z,14.37
2018-03-20T02:37:24.835Z,14.23
2018-03-20T02:39:52.403Z,13.97
2018-03-20T02:42:20.034Z,13.63
2018-03-20T02:44:47.599Z,13.05
2018-03-20T02:47:15.148Z,13.40
2018-03-20T02:49:42.716Z,14.00
2018-03-20T02:52:10.252Z,13.13
2018-03-20T02:54:37.812Z,12.53
2018-03-20T02:57:05.392Z,13.00
2018-03-20T02:59:32.982Z,12.40
2018-03-20T03:02:00.508Z,12.13
2018-03-20T03:04:28.062Z,12.27
2018-03-20T03:06:55.616Z,12.47
2018-03-20T03:09:23.157Z,12.40
2018-03-20T03:11:50.722Z,12.07
2018-03-20T03:14:18.297Z,11.90
2018-03-20T03:16:46.271Z,11.83
2018-03-20T03:19:14.022Z,11.83
2018-03-20T03:21:41.628Z,12.20
2018-03-20T03:24:10.131Z,12.00
2018-03-20T03:26:37.759Z,12.37
2018-03-20T03:29:05.522Z,12.77
2018-03-20T03:31:33.075Z,13.30
2018-03-20T03:34:00.635Z,12.23
2018-03-20T03:36:28.189Z,11.17
2018-03-20T03:38:55.768Z,11.60
2018-03-20T03:41:23.295Z,10.33
2018-03-20T03:43:50.925Z,10.25
2018-03-20T03:46:18.472Z,11.67
2018-03-20T03:48:46.178Z,10.73
2018-03-20T03:51:13.709Z,12.33
2018-03-20T03:53:41.265Z,13.87
2018-03-20T03:56:08.850Z,14.43
2018-03-20T03:58:36.375Z,12.77
2018-03-20T04:01:03.938Z,11.48
2018-03-20T04:03:31.485Z,12.00
2018-03-20T04:05:59.057Z,10.68
2018-03-20T04:08:27.064Z,10.57
2018-03-20T04:10:54.617Z,9.47
2018-03-20T04:13:22.162Z,9.87
2018-03-20T04:15:49.740Z,9.43
2018-03-20T04:18:17.271Z,10.83
2018-03-20T04:20:44.797Z,9.93
2018-03-20T04:23:12.348Z,10.53
2018-03-20T04:25:39.884Z,10.60
2018-03-20T04:28:07.435Z,9.77
2018-03-20T04:30:34.954Z,9.55
2018-03-20T04:33:02.528Z,9.67
2018-03-20T04:35:30.056Z,8.33
2018-03-20T04:37:57.613Z,7.87
2018-03-20T04:40:25.128Z,9.03
2018-03-20T04:42:52.716Z,9.57
2018-03-20T04:45:20.252Z,8.77
2018-03-20T04:47:47.808Z,9.00
2018-03-20T04:50:15.351Z,9.00
2018-03-20T04:52:42.936Z,9.47
2018-03-20T04:55:10.509Z,8.97
2018-03-20T04:57:38.043Z,10.27
2018-03-20T05:00:05.709Z,10.40
2018-03-20T05:02:33.236Z,9.88
2018-03-20T05:05:00.800Z,10.13
2018-03-20T05:07:28.344Z,9.80
2018-03-20T05:09:55.899Z,9.40
2018-03-20T05:12:23.423Z,10.43
2018-03-20T05:14:50.959Z,9.40
2018-03-20T05:17:18.545Z,9.73
2018-03-20T05:19:51.684Z,10.60
2018-03-20T05:25:22.260Z,9.57
2018-03-20T05:27:49.827Z,10.53
2018-03-20T05:30:17.371Z,10.97
2018-03-20T05:32:44.948Z,10.63
2018-03-20T05:35:12.502Z,11.70
2018-03-20T05:37:40.067Z,10.98
2018-03-20T05:40:07.603Z,11.33
2018-03-20T05:42:35.163Z,11.23
2018-03-20T05:45:02.711Z,11.63
2018-03-20T05:47:35.929Z,11.50
2018-03-20T05:50:09.156Z,12.10
2018-03-20T05:52:36.707Z,11.17
2018-03-20T05:55:04.455Z,12.20
2018-03-20T05:57:32.037Z,12.57
2018-03-20T05:59:59.617Z,18.97
2018-03-20T06:02:27.155Z,17.90
2018-03-20T06:04:54.723Z,15.73
2018-03-20T06:07:22.333Z,16.25
2018-03-20T06:09:49.888Z,18.90
2018-03-20T06:12:17.433Z,16.03
2018-03-20T06:14:45.142Z,14.43
2018-03-20T06:17:12.832Z,14.30
2018-03-20T06:19:42.975Z,14.13
2018-03-20T06:22:10.588Z,14.77
2018-03-20T06:24:38.226Z,14.57
2018-03-20T06:27:05.742Z,13.23
2018-03-20T06:29:33.749Z,14.00
2018-03-20T06:32:01.319Z,12.60
2018-03-20T06:34:29.329Z,12.25
2018-03-20T06:36:56.890Z,11.77
2018-03-20T06:39:24.501Z,12.10
2018-03-20T06:41:52.057Z,12.83
2018-03-20T06:44:19.590Z,11.47
2018-03-20T06:46:47.168Z,11.87
2018-03-20T06:49:14.712Z,11.73
2018-03-20T06:51:42.289Z,11.38
2018-03-20T06:54:09.811Z,12.17
2018-03-20T06:56:37.414Z,12.13
2018-03-20T06:59:05.676Z,11.63
2018-03-20T07:01:34.507Z,10.60
2018-03-20T07:04:02.096Z,10.43
2018-03-20T07:06:29.881Z,10.80
2018-03-20T07:08:57.683Z,10.30
2018-03-20T07:11:25.224Z,10.60
2018-03-20T07:13:55.940Z,10.50
2018-03-20T07:16:23.670Z,10.40
2018-03-20T07:18:51.249Z,10.30
2018-03-20T07:21:18.789Z,10.57
2018-03-20T07:23:46.348Z,8.60
2018-03-20T07:26:13.872Z,8.57
2018-03-20T07:28:41.391Z,9.20
2018-03-20T07:31:08.979Z,8.93
2018-03-20T07:33:36.498Z,9.43
2018-03-20T07:36:06.646Z,9.77
2018-03-20T07:38:34.397Z,9.53
2018-03-20T07:41:04.577Z,9.32
2018-03-20T07:43:32.379Z,9.90
2018-03-20T07:46:00.143Z,9.43
2018-03-20T07:48:27.691Z,8.90
2018-03-20T07:50:55.623Z,7.37
2018-03-20T07:53:23.132Z,7.67
2018-03-20T07:55:50.727Z,7.87
2018-03-20T07:58:18.237Z,8.30
2018-03-20T08:00:45.771Z,7.60
2018-03-20T08:03:13.396Z,7.90
2018-03-20T08:05:40.932Z,7.57
2018-03-20T08:08:08.560Z,7.03
2018-03-20T08:10:36.090Z,7.27
2018-03-20T08:13:03.659Z,7.50
2018-03-20T08:15:32.152Z,8.35
2018-03-20T08:17:59.738Z,7.30
2018-03-20T08:20:27.289Z,7.87
2018-03-20T08:22:54.852Z,8.13
2018-03-20T08:25:22.400Z,7.30
2018-03-20T08:27:50.010Z,7.30
2018-03-20T08:30:17.559Z,8.27
2018-03-20T08:32:45.083Z,8.52
2018-03-20T08:35:12.629Z,7.80
2018-03-20T08:37:40.206Z,8.10
2018-03-20T08:40:07.909Z,8.53
2018-03-20T08:42:35.446Z,7.70
2018-03-20T08:45:03.030Z,7.90
2018-03-20T08:47:30.552Z,8.87
2018-03-20T08:49:58.086Z,7.90
2018-03-20T08:52:25.631Z,8.80
2018-03-20T08:54:53.162Z,8.60
2018-03-20T08:57:20.699Z,9.63
2018-03-20T08:59:48.255Z,9.63
2018-03-20T09:02:16.570Z,9.10
2018-03-20T09:04:44.468Z,8.32
2018-03-20T09:07:12.160Z,9.47
2018-03-20T09:09:39.694Z,8.97
2018-03-20T09:12:09.377Z,7.70
2018-03-20T09:14:36.884Z,6.97
2018-03-20T09:17:04.778Z,6.78
2018-03-20T09:19:32.599Z,8.13
2018-03-20T09:22:04.450Z,7.73
2018-03-20T09:24:32.386Z,7.60
2018-03-20T09:27:00.278Z,7.43
2018-03-20T09:29:28.005Z,7.80
2018-03-20T09:31:55.518Z,7.30
2018-03-20T09:34:23.287Z,8.07
2018-03-20T09:36:50.918Z,7.13
2018-03-20T09:39:19.455Z,7.77
2018-03-20T09:41:47.027Z,7.37
2018-03-20T09:44:14.627Z,8.10
2018-03-20T09:46:42.487Z,7.80
2018-03-20T09:49:10.171Z,8.13
2018-03-20T09:51:37.761Z,7.60
2018-03-20T09:54:05.686Z,8.52
2018-03-20T09:56:33.222Z,8.27
2018-03-20T09:59:00.740Z,7.87
2018-03-20T10:01:28.313Z,7.50
2018-03-20T10:03:55.840Z,8.13
2018-03-20T10:06:23.400Z,7.30
2018-03-20T10:08:50.932Z,7.50
2018-03-20T10:11:18.500Z,7.67
2018-03-20T10:13:46.031Z,7.47
2018-03-20T10:16:13.600Z,7.20
2018-03-20T10:18:44.062Z,7.10
2018-03-20T10:21:13.061Z,7.40
2018-03-20T10:23:44.433Z,6.62
2018-03-20T10:26:13.932Z,8.48
2018-03-20T10:28:44.067Z,7.17
2018-03-20T10:31:13.168Z,7.43
2018-03-20T10:33:42.967Z,6.97
2018-03-20T10:36:13.262Z,6.50
2018-03-20T10:38:41.507Z,7.55
2018-03-20T10:41:09.253Z,6.67
2018-03-20T10:43:41.969Z,6.93
2018-03-20T10:46:10.283Z,6.83
2018-03-20T10:48:40.534Z,6.57
2018-03-20T10:51:10.498Z,7.63
2018-03-20T10:53:41.757Z,7.37
2018-03-20T10:56:10.588Z,7.20
2018-03-20T10:58:41.975Z,8.23
2018-03-20T11:01:15.411Z,7.37
2018-03-20T11:03:42.959Z,7.30
2018-03-20T11:06:13.411Z,7.30
2018-03-20T11:08:44.269Z,6.72
2018-03-20T11:11:14.501Z,6.83
2018-03-20T11:13:45.123Z,6.37
2018-03-20T11:16:15.646Z,6.17
2018-03-20T11:18:44.225Z,7.93
2018-03-20T11:21:14.948Z,7.00
2018-03-20T11:23:46.094Z,6.77
2018-03-20T11:26:13.722Z,6.47
2018-03-20T11:28:47.725Z,7.23
2018-03-20T11:31:19.007Z,7.00
2018-03-20T11:33:50.675Z,6.68
2018-03-20T11:36:21.202Z,8.20
2018-03-20T11:38:48.934Z,7.07
2018-03-20T11:41:18.380Z,6.23
2018-03-20T11:43:47.682Z,6.53
2018-03-20T11:46:15.396Z,6.67
2018-03-20T11:48:43.054Z,6.40
2018-03-20T11:51:15.875Z,6.72
2018-03-20T11:53:49.146Z,6.33
2018-03-20T11:56:22.244Z,6.40
2018-03-20T11:58:52.208Z,6.30
2018-03-20T12:01:20.497Z,6.63
2018-03-20T12:03:50.839Z,7.27
2018-03-20T12:06:19.928Z,6.77
2018-03-20T12:08:51.276Z,6.30
2018-03-20T12:11:18.783Z,6.23
2018-03-20T12:13:46.356Z,6.07
2018-03-20T12:16:13.868Z,6.10
2018-03-20T12:18:41.406Z,6.75
2018-03-20T12:21:08.911Z,5.73
2018-03-20T12:23:36.525Z,6.90
2018-03-20T12:26:04.044Z,7.27
2018-03-20T12:28:31.596Z,6.70
2018-03-20T12:30:59.131Z,8.27
2018-03-20T12:33:26.670Z,7.60
2018-03-20T12:35:54.232Z,7.53
2018-03-20T12:38:21.776Z,8.83
2018-03-20T12:40:49.343Z,8.70
2018-03-20T12:43:16.860Z,7.77
2018-03-20T12:45:44.437Z,7.67
2018-03-20T12:48:11.945Z,7.37
2018-03-20T12:50:39.497Z,7.12
2018-03-20T12:53:07.020Z,7.27
2018-03-20T12:55:34.572Z,7.03
2018-03-20T12:58:02.248Z,6.27
2018-03-20T13:00:29.856Z,6.53
2018-03-20T13:02:57.377Z,6.93
2018-03-20T13:05:24.965Z,6.90
2018-03-20T13:07:52.589Z,6.93
2018-03-20T13:10:20.152Z,7.43
2018-03-20T13:12:47.667Z,7.67
2018-03-20T13:15:15.219Z,7.73
2018-03-20T13:17:42.790Z,8.50
2018-03-20T13:20:10.348Z,9.73
2018-03-20T13:22:37.903Z,8.23
2018-03-20T13:25:06.229Z,8.63
2018-03-20T13:27:34.318Z,8.07
2018-03-20T13:30:03.418Z,7.33
2018-03-20T13:32:30.974Z,8.03
2018-03-20T13:35:01.092Z,8.77
2018-03-20T13:37:28.827Z,8.27
2018-03-20T13:39:57.132Z,8.40
2018-03-20T13:42:24.731Z,8.13
2018-03-20T13:44:55.085Z,8.37
2018-03-20T13:47:26.899Z,8.33
2018-03-20T13:49:54.620Z,7.85
2018-03-20T13:52:22.144Z,7.70
2018-03-20T13:54:50.232Z,7.25
2018-03-20T13:57:17.743Z,6.60
2018-03-20T13:59:45.310Z,7.50
2018-03-20T14:02:13.504Z,6.53
2018-03-20T14:04:41.066Z,6.90
2018-03-20T14:07:08.618Z,7.93
2018-03-20T14:09:36.449Z,7.03
2018-03-20T14:12:04.267Z,7.07
2018-03-20T14:14:31.892Z,7.43
2018-03-20T14:16:59.439Z,6.90
2018-03-20T14:19:26.979Z,6.53
2018-03-20T14:21:57.087Z,6.43
2018-03-20T14:24:28.345Z,7.32
2018-03-20T14:26:59.943Z,6.70
2018-03-20T14:29:31.963Z,6.70
2018-03-20T14:32:04.103Z,7.13
2018-03-20T14:34:35.476Z,7.33
2018-03-20T14:37:06.401Z,6.37
2018-03-20T14:42:14.763Z,7.03
2018-03-20T14:44:47.562Z,6.27
2018-03-20T14:47:23.420Z,7.70
2018-03-20T14:49:55.621Z,7.37
2018-03-20T14:52:31.882Z,6.87
2018-03-20T14:55:03.428Z,6.37
2018-03-20T14:57:37.954Z,7.13
2018-03-20T15:00:19.916Z,6.77
2018-03-20T15:02:54.244Z,6.47
2018-03-20T15:05:26.298Z,6.32
2018-03-20T15:07:58.728Z,6.70
2018-03-20T15:10:29.623Z,6.57
2018-03-20T15:13:00.908Z,6.53
2018-03-20T15:15:31.778Z,6.47
2018-03-20T15:18:03.797Z,6.50
2018-03-20T15:20:36.873Z,6.43
2018-03-20T15:23:07.487Z,6.70
2018-03-20T15:25:40.033Z,6.33
2018-03-20T15:28:11.297Z,7.50
2018-03-20T15:30:43.242Z,6.60
2018-03-20T15:33:14.294Z,5.70
2018-03-20T15:35:47.108Z,5.87
2018-03-20T15:38:19.657Z,5.73
2018-03-20T15:40:50.579Z,4.83
2018-03-20T15:43:22.080Z,5.70
2018-03-20T15:45:53.024Z,4.97
2018-03-20T15:48:24.864Z,5.37
2018-03-20T15:50:55.569Z,5.70
2018-03-20T15:53:26.613Z,5.62
2018-03-20T15:55:58.468Z,5.40
2018-03-20T15:58:31.092Z,5.47
2018-03-20T16:00:59.875Z,5.03
2018-03-20T16:03:29.429Z,4.72
2018-03-20T16:05:59.398Z,4.87
2018-03-20T16:08:32.064Z,4.43
2018-03-20T16:11:00.224Z,4.73
2018-03-20T16:13:27.972Z,4.60
2018-03-20T16:15:55.482Z,4.20
2018-03-20T16:18:27.373Z,4.57
2018-03-20T16:20:57.978Z,3.77
2018-03-20T16:23:26.005Z,3.73
2018-03-20T16:25:53.639Z,3.60
2018-03-20T16:28:23.517Z,3.95
2018-03-20T16:30:53.575Z,3.60
2018-03-20T16:33:22.264Z,3.27
2018-03-20T16:35:51.355Z,3.37
2018-03-20T16:38:19.111Z,3.92
2018-03-20T16:40:46.656Z,3.33
2018-03-20T16:43:16.871Z,3.17
2018-03-20T16:45:45.364Z,2.73
2018-03-20T16:48:13.505Z,2.30
2018-03-20T16:50:41.898Z,2.93
2018-03-20T16:53:10.817Z,2.53
2018-03-20T16:55:43.053Z,2.00
2018-03-20T16:58:11.325Z,1.98
2018-03-20T17:00:39.252Z,2.10
2018-03-20T17:03:07.569Z,2.10
2018-03-20T17:05:35.602Z,3.17
2018-03-20T17:08:04.360Z,3.20
2018-03-20T17:10:31.906Z,1.83
2018-03-20T17:13:01.501Z,1.90
2018-03-20T17:15:31.049Z,2.53
2018-03-20T17:18:02.693Z,2.83
2018-03-20T17:20:30.641Z,1.90
2018-03-20T17:23:01.924Z,1.73
2018-03-20T17:25:31.993Z,1.67
2018-03-20T17:28:02.542Z,2.20
2018-03-20T17:30:32.594Z,2.55
2018-03-20T17:33:03.821Z,2.27
2018-03-20T17:35:38.697Z,1.70
2018-03-20T17:38:06.926Z,2.13
2018-03-20T17:40:35.462Z,2.30
2018-03-20T17:43:03.255Z,1.57
2018-03-20T17:45:34.827Z,1.40
2018-03-20T17:48:02.388Z,1.80
2018-03-20T17:50:29.922Z,1.60
2018-03-20T17:52:57.474Z,1.80
2018-03-20T17:55:25.004Z,1.57
2018-03-20T17:57:52.561Z,1.80
2018-03-20T18:00:20.082Z,1.70
2018-03-20T18:02:47.636Z,1.80
2018-03-20T18:05:15.172Z,2.00
2018-03-20T18:07:42.687Z,1.90
2018-03-20T18:10:10.230Z,1.90
2018-03-20T18:12:37.751Z,1.60
2018-03-20T18:15:05.436Z,2.10
2018-03-20T18:17:32.991Z,2.17
2018-03-20T18:20:00.548Z,1.83
2018-03-20T18:22:28.100Z,1.98
2018-03-20T18:24:55.642Z,2.03
2018-03-20T18:27:23.221Z,2.70
2018-03-20T18:29:51.110Z,2.33
2018-03-20T18:32:18.663Z,2.00
2018-03-20T18:34:46.883Z,2.10
2018-03-20T18:37:15.629Z,2.22
2018-03-20T18:39:43.233Z,1.90
2018-03-20T18:42:10.783Z,2.22
2018-03-20T18:44:38.291Z,1.98
2018-03-20T18:47:05.963Z,2.00
2018-03-20T18:49:33.491Z,2.00
2018-03-20T18:52:01.039Z,2.47
2018-03-20T18:54:28.743Z,2.30
2018-03-20T18:56:56.320Z,2.70
2018-03-20T18:59:23.844Z,3.20
2018-03-20T19:01:51.404Z,4.33
2018-03-20T19:04:18.956Z,3.17
2018-03-20T19:06:46.559Z,2.87
2018-03-20T19:09:14.128Z,2.97
2018-03-20T19:11:41.768Z,3.00
2018-03-20T19:14:09.371Z,3.37
2018-03-20T19:16:37.018Z,3.45
2018-03-20T19:19:05.600Z,2.60
2018-03-20T19:21:33.385Z,2.27
2018-03-20T19:24:00.929Z,2.63
2018-03-20T19:26:28.687Z,2.60
2018-03-20T19:28:56.315Z,3.90
2018-03-20T19:31:24.569Z,4.93
2018-03-20T19:33:52.104Z,6.47
2018-03-20T19:36:19.788Z,4.47
2018-03-20T19:38:48.088Z,5.47
2018-03-20T19:41:15.829Z,6.43
2018-03-20T19:43:43.376Z,5.20
2018-03-20T19:46:11.411Z,4.45
2018-03-20T19:48:38.931Z,6.27
2018-03-20T19:51:11.514Z,4.27
2018-03-20T19:53:39.152Z,4.97
2018-03-20T19:56:06.848Z,5.93
2018-03-20T19:58:34.378Z,5.40
2018-03-20T20:01:01.929Z,4.57
2018-03-20T20:03:29.495Z,5.40
2018-03-20T20:05:57.085Z,4.60
2018-03-20T20:08:24.660Z,5.33
2018-03-20T20:10:52.228Z,6.07
2018-03-20T20:13:19.772Z,5.03
2018-03-20T20:15:47.307Z,5.50
2018-03-20T20:18:14.857Z,5.87
2018-03-20T20:20:42.409Z,4.80
2018-03-20T20:23:09.962Z,4.80
2018-03-20T20:25:37.523Z,4.50
2018-03-20T20:28:05.081Z,5.23
2018-03-20T20:30:32.688Z,4.30
2018-03-20T20:33:00.245Z,5.37
2018-03-20T20:35:27.784Z,4.23
2018-03-20T20:37:55.367Z,4.67
2018-03-20T20:40:22.892Z,4.63
2018-03-20T20:42:50.440Z,4.10
2018-03-20T20:45:17.952Z,3.63
2018-03-20T20:47:45.487Z,4.10
2018-03-20T20:50:13.033Z,4.43
2018-03-20T20:52:40.560Z,3.53
2018-03-20T20:55:08.114Z,4.40
2018-03-20T20:57:35.675Z,4.10
2018-03-20T21:00:03.263Z,4.87
2018-03-20T21:02:30.771Z,5.00
2018-03-20T21:04:58.329Z,6.93
2018-03-20T21:07:25.880Z,6.60
2018-03-20T21:09:53.407Z,6.17
2018-03-20T21:12:21.878Z,5.60
2018-03-20T21:14:49.401Z,9.17
2018-03-20T21:17:17.494Z,12.90
2018-03-20T21:19:45.020Z,11.43
2018-03-20T21:22:12.584Z,12.70
2018-03-20T21:24:40.580Z,14.73
2018-03-20T21:27:08.240Z,13.57
2018-03-20T21:29:35.823Z,11.63
2018-03-20T21:32:03.784Z,12.10
2018-03-20T21:34:31.685Z,16.00
2018-03-20T21:36:59.353Z,16.73
2018-03-20T21:39:26.886Z,15.18
2018-03-20T21:41:55.566Z,14.80
2018-03-20T21:44:24.628Z,13.48
2018-03-20T21:46:53.040Z,12.47
2018-03-20T21:49:20.577Z,13.47
2018-03-20T21:51:48.488Z,11.20
2018-03-20T21:54:16.404Z,16.47
2018-03-20T21:56:44.005Z,16.33
2018-03-20T21:59:12.223Z,17.17
2018-03-20T22:01:39.791Z,18.03
2018-03-20T22:04:07.408Z,18.20
2018-03-20T22:06:35.011Z,16.95
2018-03-20T22:09:02.750Z,16.47
2018-03-20T22:11:30.510Z,16.30
2018-03-20T22:13:58.333Z,14.10
2018-03-20T22:16:26.271Z,15.48
2018-03-20T22:18:54.246Z,16.23
2018-03-20T22:21:22.766Z,14.63
2018-03-20T22:23:50.323Z,13.27
2018-03-20T22:26:18.045Z,14.63
2018-03-20T22:28:46.230Z,14.03
2018-03-20T22:31:13.783Z,13.87
2018-03-20T22:33:41.405Z,13.43
2018-03-20T22:36:09.660Z,13.80
2018-03-20T22:38:37.954Z,14.60
2018-03-20T22:41:05.497Z,13.77
2018-03-20T22:43:33.243Z,13.52
2018-03-20T22:46:01.042Z,15.73
2018-03-20T22:48:29.352Z,14.63
2018-03-20T22:50:56.896Z,15.60
2018-03-20T22:53:25.471Z,15.68
2018-03-20T22:55:54.738Z,16.35
2018-03-20T22:58:22.519Z,18.57
2018-03-20T23:00:50.063Z,17.70
2018-03-20T23:03:18.033Z,17.03
2018-03-20T23:05:45.716Z,17.97
2018-03-20T23:08:13.283Z,17.70
2018-03-20T23:10:40.818Z,17.07
2018-03-20T23:13:08.376Z,17.70
2018-03-20T23:15:35.919Z,17.20
2018-03-20T23:18:03.476Z,15.10
2018-03-20T23:20:31.069Z,15.10
2018-03-20T23:23:01.058Z,14.40
2018-03-20T23:25:28.685Z,14.70
2018-03-20T23:27:57.054Z,15.73
2018-03-20T23:30:25.456Z,15.15
2018-03-20T23:32:54.187Z,15.67
2018-03-20T23:35:22.986Z,15.07
2018-03-20T23:37:50.841Z,14.90
2018-03-20T23:40:18.740Z,14.43
2018-03-20T23:42:46.301Z,14.85
2018-03-20T23:45:14.015Z,14.40
2018-03-20T23:47:42.141Z,14.25
2018-03-20T23:50:09.963Z,13.65
2018-03-20T23:52:37.889Z,12.57
2018-03-20T23:55:06.503Z,12.80
2018-03-20T23:57:34.127Z,12.57
